Time;durP1;ratioP1;P1;durP2;ratioP2;P2;SDS_P1;SDS_P2;PMS_P1;PMS_P2;Temp;Humidity;BMP_temperature;BMP_pressure;BME280_temperature;BME280_humidity;BME280_pressure;Samples;Min_cycle;Max_cycle;Signal;HPM_P1;HPM_P2
2022/07/09 00:01:43;;;;;;;4.88;2.90;;;;;;;25.03;46.70;102818.47;4740856;30;20048;-74
2022/07/09 00:04:09;;;;;;;4.13;2.58;;;;;;;25.05;46.60;102824.44;4735332;30;20044;-74
2022/07/09 00:06:34;;;;;;;3.40;2.50;;;;;;;25.05;46.78;102818.28;4736013;30;20036;-74
2022/07/09 00:09:00;;;;;;;4.47;2.67;;;;;;;25.05;46.83;102821.78;4739112;30;20048;-74
2022/07/09 00:11:25;;;;;;;3.63;2.70;;;;;;;25.02;46.60;102819.47;4741624;30;20055;-74
2022/07/09 00:13:51;;;;;;;4.50;2.70;;;;;;;25.04;46.71;102813.97;4740489;30;20074;-74
2022/07/09 00:16:16;;;;;;;4.15;2.80;;;;;;;25.01;46.50;102809.81;4738296;30;20044;-74
2022/07/09 00:18:42;;;;;;;3.25;2.53;;;;;;;25.03;46.84;102806.97;4738737;30;20128;-74
2022/07/09 00:21:07;;;;;;;4.30;2.55;;;;;;;25.01;46.68;102809.81;4737684;30;20056;-74
2022/07/09 00:23:33;;;;;;;4.05;2.83;;;;;;;24.98;46.91;102813.59;4742924;30;20052;-74
2022/07/09 00:25:59;;;;;;;4.32;2.70;;;;;;;25.03;46.51;102807.78;4738877;30;20048;-74
2022/07/09 00:28:24;;;;;;;4.10;2.83;;;;;;;25.00;46.73;102802.81;4739231;30;20052;-74
2022/07/09 00:30:50;;;;;;;3.15;2.47;;;;;;;24.96;46.82;102804.09;4739873;30;20392;-73
2022/07/09 00:33:15;;;;;;;4.63;2.95;;;;;;;24.96;46.73;102806.78;4740858;30;20044;-74
2022/07/09 00:35:41;;;;;;;4.70;2.40;;;;;;;25.00;46.64;102803.63;4739091;30;20075;-73
2022/07/09 00:38:06;;;;;;;4.43;2.78;;;;;;;24.99;46.65;102804.63;4739137;30;20056;-73
2022/07/09 00:40:34;;;;;;;3.13;2.70;;;;;;;24.99;46.61;102796.63;4736873;30;20047;-74
2022/07/09 00:43:00;;;;;;;3.13;2.45;;;;;;;24.92;46.74;102803.59;4738484;30;20071;-74
2022/07/09 00:45:26;;;;;;;3.65;2.65;;;;;;;24.94;46.79;102796.25;4738629;30;20048;-74
2022/07/09 00:47:51;;;;;;;4.60;2.83;;;;;;;24.89;46.61;102798.59;4738381;30;20066;-74
2022/07/09 00:50:17;;;;;;;4.55;2.60;;;;;;;24.88;46.84;102782.78;4739210;30;20071;-74
2022/07/09 00:52:43;;;;;;;4.80;2.55;;;;;;;24.95;46.51;102791.75;4736871;30;20048;-73
2022/07/09 00:55:11;;;;;;;3.60;2.70;;;;;;;24.95;46.79;102794.41;4739487;30;20051;-74
2022/07/09 00:57:38;;;;;;;3.85;2.53;;;;;;;24.89;46.91;102795.09;4739754;30;20044;-74
2022/07/09 01:00:04;;;;;;;4.20;2.83;;;;;;;24.87;46.80;102792.59;4736071;30;20055;-74
2022/07/09 01:02:30;;;;;;;4.32;2.85;;;;;;;24.85;46.94;102791.94;4737227;30;20048;-73
2022/07/09 01:04:55;;;;;;;4.18;2.60;;;;;;;24.88;46.85;102791.59;4735723;30;20055;-74
2022/07/09 01:07:21;;;;;;;3.95;2.65;;;;;;;24.87;46.87;102781.09;4740691;30;20052;-73
2022/07/09 01:09:46;;;;;;;3.38;2.60;;;;;;;24.88;46.95;102782.78;4736439;30;20545;-74
2022/07/09 01:12:12;;;;;;;4.38;2.75;;;;;;;24.90;46.64;102778.09;4737946;30;20059;-74
2022/07/09 01:14:37;;;;;;;3.03;2.70;;;;;;;24.87;46.51;102773.13;4736771;30;20051;-74
2022/07/09 01:17:05;;;;;;;3.28;2.42;;;;;;;24.86;46.65;102769.63;4738844;30;20044;-73
2022/07/09 01:19:31;;;;;;;4.95;2.45;;;;;;;24.87;46.81;102768.63;4736846;30;20111;-74
2022/07/09 01:21:57;;;;;;;3.90;2.58;;;;;;;24.85;46.67;102767.94;4737785;30;20048;-73
2022/07/09 01:24:25;;;;;;;3.25;2.47;;;;;;;24.85;46.94;102761.78;4739212;30;20048;-74
2022/07/09 01:26:52;;;;;;;3.38;2.40;;;;;;;24.88;46.78;102764.94;4738020;30;20052;-73
2022/07/09 01:29:18;;;;;;;5.35;3.15;;;;;;;24.82;46.89;102757.63;4736994;30;20151;-73
2022/07/09 01:31:43;;;;;;;2.88;2.17;;;;;;;24.82;46.68;102762.97;4737257;30;20803;-74
2022/07/09 01:34:09;;;;;;;3.78;2.50;;;;;;;24.79;46.90;102757.13;4737647;30;20140;-74
2022/07/09 01:36:35;;;;;;;2.55;2.25;;;;;;;24.84;46.63;102757.47;4738518;30;20063;-73
2022/07/09 01:39:00;;;;;;;4.57;2.55;;;;;;;24.77;46.99;102751.13;4737536;30;20059;-74
2022/07/09 01:41:26;;;;;;;2.95;2.50;;;;;;;24.83;46.98;102755.81;4737593;30;20067;-75
2022/07/09 01:43:51;;;;;;;3.97;2.55;;;;;;;24.77;47.02;102748.44;4738272;30;20484;-74
2022/07/09 01:46:17;;;;;;;5.68;2.90;;;;;;;24.74;46.91;102762.09;4736656;30;20044;-73
2022/07/09 01:48:42;;;;;;;4.80;2.92;;;;;;;24.79;46.78;102747.31;4736166;30;20055;-74
2022/07/09 01:51:12;;;;;;;3.88;2.40;;;;;;;24.81;47.10;102747.97;4739441;30;20755;-74
2022/07/09 01:53:39;;;;;;;4.05;2.60;;;;;;;24.76;46.85;102747.63;4735369;30;20050;-74
2022/07/09 01:56:10;;;;;;;3.72;2.80;;;;;;;24.73;46.86;102752.47;4734464;30;20106;-73
2022/07/09 01:58:36;;;;;;;3.30;2.30;;;;;;;24.75;46.89;102742.47;4736857;30;20519;-73
2022/07/09 02:01:02;;;;;;;3.60;2.70;;;;;;;24.73;46.87;102739.97;4734993;30;20765;-74
2022/07/09 02:03:28;;;;;;;2.40;2.20;;;;;;;24.73;46.87;102739.97;4733699;30;20044;-74
2022/07/09 02:05:54;;;;;;;2.83;2.50;;;;;;;24.70;47.08;102727.81;4738091;30;20056;-74
2022/07/09 02:08:19;;;;;;;3.78;2.78;;;;;;;24.70;46.71;102732.31;4740236;30;20048;-74
2022/07/09 02:10:45;;;;;;;3.50;2.45;;;;;;;24.72;46.87;102730.31;4738355;30;20048;-74
2022/07/09 02:13:12;;;;;;;2.70;2.20;;;;;;;24.78;46.83;102724.34;4738843;30;20062;-74
2022/07/09 02:15:37;;;;;;;4.65;2.30;;;;;;;24.69;46.89;102710.16;4738358;30;20107;-73
2022/07/09 02:18:04;;;;;;;3.05;2.22;;;;;;;24.69;46.84;102715.50;4735594;30;20046;-74
2022/07/09 02:20:30;;;;;;;4.05;2.60;;;;;;;24.71;46.75;102718.00;4737962;30;20063;-74
2022/07/09 02:22:55;;;;;;;2.85;2.33;;;;;;;24.70;46.89;102713.66;4740122;30;20036;-74
2022/07/09 02:25:21;;;;;;;3.35;2.75;;;;;;;24.71;46.92;102712.66;4721268;30;20447;-73
2022/07/09 02:27:46;;;;;;;4.30;2.60;;;;;;;24.70;46.67;102717.16;4737538;30;20044;-74
2022/07/09 02:30:12;;;;;;;3.40;2.47;;;;;;;24.69;47.07;102704.84;4734151;30;20407;-74
2022/07/09 02:32:38;;;;;;;3.60;2.60;;;;;;;24.66;47.02;102712.34;4739787;30;20048;-74
2022/07/09 02:35:04;;;;;;;4.10;2.40;;;;;;;24.67;46.97;102706.84;4740250;30;20136;-73
2022/07/09 02:37:30;;;;;;;2.58;2.38;;;;;;;24.70;47.05;102714.50;4728718;30;20063;-74
2022/07/09 02:39:55;;;;;;;2.78;2.42;;;;;;;24.66;46.84;102715.00;4739130;30;20075;-74
2022/07/09 02:42:21;;;;;;;5.45;2.53;;;;;;;24.68;46.91;102713.84;4737157;30;20043;-73
2022/07/09 02:44:47;;;;;;;4.77;2.47;;;;;;;24.62;47.08;102717.16;4742201;30;20048;-74
2022/07/09 02:47:12;;;;;;;2.47;2.28;;;;;;;24.66;46.99;102715.00;4735704;30;20052;-74
2022/07/09 02:49:38;;;;;;;2.65;2.20;;;;;;;24.66;46.59;102715.00;4736855;30;20044;-74
2022/07/09 02:52:04;;;;;;;3.47;2.60;;;;;;;24.66;47.02;102709.69;4735845;30;20716;-74
2022/07/09 02:54:29;;;;;;;3.78;2.30;;;;;;;24.62;47.15;102709.19;4738652;30;20048;-73
2022/07/09 02:56:55;;;;;;;3.08;2.58;;;;;;;24.66;46.87;102709.69;4735578;30;20092;-74
2022/07/09 02:59:20;;;;;;;3.40;2.20;;;;;;;24.68;46.96;102716.50;4733528;30;20048;-74
2022/07/09 03:01:46;;;;;;;3.08;2.38;;;;;;;24.59;47.25;102713.97;4732917;30;20071;-74
2022/07/09 03:04:12;;;;;;;4.95;2.47;;;;;;;24.66;46.81;102710.50;4736745;30;20087;-74
2022/07/09 03:06:37;;;;;;;4.65;2.65;;;;;;;24.68;46.79;102697.84;4737599;30;21209;-74
2022/07/09 03:09:03;;;;;;;2.90;2.13;;;;;;;24.64;47.10;102704.53;4738764;30;20075;-74
2022/07/09 03:11:29;;;;;;;2.85;2.40;;;;;;;24.62;47.01;102701.19;4733724;30;20055;-74
2022/07/09 03:13:54;;;;;;;3.28;2.45;;;;;;;24.63;47.05;102692.19;4738272;30;20451;-74
2022/07/09 03:16:20;;;;;;;2.35;2.15;;;;;;;24.60;46.96;102686.38;4732581;30;20044;-74
2022/07/09 03:18:45;;;;;;;3.63;2.55;;;;;;;24.59;47.07;102679.34;4745311;30;20094;-74
2022/07/09 03:21:11;;;;;;;2.50;2.20;;;;;;;24.58;47.20;102686.50;4737511;30;20048;-74
2022/07/09 03:23:38;;;;;;;3.28;2.70;;;;;;;24.62;46.82;102679.88;4740376;30;20154;-74
2022/07/09 03:26:05;;;;;;;3.78;2.50;;;;;;;24.63;46.97;102678.88;4741041;30;20475;-74
2022/07/09 03:28:30;;;;;;;2.83;2.42;;;;;;;24.57;47.06;102674.19;4738655;30;20082;-74
2022/07/09 03:30:56;;;;;;;4.15;2.55;;;;;;;24.58;47.14;102677.69;4737001;30;20047;-74
2022/07/09 03:33:22;;;;;;;3.33;2.58;;;;;;;24.60;47.03;102675.72;4738059;30;20054;-74
2022/07/09 03:35:48;;;;;;;3.53;2.30;;;;;;;24.53;47.21;102672.88;4739104;30;20060;-74
2022/07/09 03:38:13;;;;;;;3.05;2.33;;;;;;;24.55;47.14;102673.53;4738141;30;20051;-74
2022/07/09 03:40:39;;;;;;;2.70;2.15;;;;;;;24.50;47.38;102677.72;4738926;30;20051;-73
2022/07/09 03:43:05;;;;;;;5.60;2.28;;;;;;;24.52;47.22;102675.72;4742622;30;20052;-74
2022/07/09 03:45:30;;;;;;;2.65;2.28;;;;;;;24.56;47.10;102674.38;4739696;30;20076;-74
2022/07/09 03:47:56;;;;;;;3.85;2.20;;;;;;;24.58;46.96;102667.88;4738845;30;20056;-74
2022/07/09 03:50:21;;;;;;;4.00;2.35;;;;;;;24.58;47.07;102683.84;4739921;30;20048;-74
2022/07/09 03:52:47;;;;;;;2.58;2.13;;;;;;;24.57;47.11;102679.53;4739565;30;20156;-73
2022/07/09 03:55:12;;;;;;;2.78;2.30;;;;;;;24.51;47.12;102669.56;4736536;30;20630;-74
2022/07/09 03:57:38;;;;;;;3.35;2.03;;;;;;;24.50;47.27;102669.72;4740317;30;20075;-74
2022/07/09 04:00:06;;;;;;;3.30;2.38;;;;;;;24.56;47.08;102671.72;4737746;30;21424;-74
2022/07/09 04:02:38;;;;;;;3.30;2.40;;;;;;;24.50;47.20;102675.88;4735460;30;20051;-74
2022/07/09 04:05:04;;;;;;;4.10;2.35;;;;;;;24.55;47.12;102670.03;4736775;30;20076;-73
2022/07/09 04:07:29;;;;;;;2.55;2.28;;;;;;;24.53;47.10;102677.38;4741430;30;20483;-74
2022/07/09 04:09:55;;;;;;;3.05;2.33;;;;;;;24.52;47.23;102663.22;4742669;30;20415;-74
2022/07/09 04:12:21;;;;;;;2.42;2.22;;;;;;;24.55;46.96;102673.53;4738514;30;20085;-73
2022/07/09 04:14:47;;;;;;;4.18;2.35;;;;;;;24.55;47.01;102675.38;4741242;30;20048;-74
2022/07/09 04:17:12;;;;;;;2.67;2.10;;;;;;;24.55;47.08;102672.72;4738341;30;20385;-74
2022/07/09 04:19:38;;;;;;;4.38;2.45;;;;;;;24.49;47.26;102676.03;4735128;30;20499;-74
2022/07/09 04:22:05;;;;;;;5.43;2.38;;;;;;;24.55;47.09;102678.88;4738867;30;20135;-74
2022/07/09 04:24:30;;;;;;;3.17;2.17;;;;;;;24.54;47.03;102671.03;4740317;30;20599;-74
2022/07/09 04:26:56;;;;;;;2.75;2.30;;;;;;;24.54;47.18;102665.72;4738388;30;20052;-74
2022/07/09 04:29:22;;;;;;;3.90;2.20;;;;;;;24.47;47.28;102670.88;4738403;30;20525;-74
2022/07/09 04:31:48;;;;;;;3.50;2.30;;;;;;;24.53;47.45;102670.22;4735294;30;20125;-72
2022/07/09 04:34:13;;;;;;;2.70;2.10;;;;;;;24.53;47.04;102682.69;4737841;30;20719;-73
2022/07/09 04:36:39;;;;;;;3.05;2.20;;;;;;;24.46;47.25;102677.22;4736381;30;20149;-74
2022/07/09 04:39:05;;;;;;;3.13;2.40;;;;;;;24.49;46.91;102665.38;4743435;30;20392;-73
2022/07/09 04:41:30;;;;;;;2.92;2.22;;;;;;;24.51;47.06;102672.22;4737487;30;20092;-73
2022/07/09 04:43:56;;;;;;;3.15;1.90;;;;;;;24.49;47.13;102671.56;4737671;30;20508;-73
2022/07/09 04:46:22;;;;;;;3.00;2.10;;;;;;;24.52;47.21;102671.22;4738277;30;20496;-73
2022/07/09 04:48:50;;;;;;;3.65;2.40;;;;;;;24.48;47.06;102672.56;4739707;30;21303;-73
2022/07/09 04:51:16;;;;;;;5.47;2.40;;;;;;;24.52;47.00;102668.56;4737531;30;20048;-73
2022/07/09 04:53:42;;;;;;;2.33;2.10;;;;;;;24.52;47.04;102675.72;4740896;30;20109;-73
2022/07/09 04:56:07;;;;;;;3.30;2.20;;;;;;;24.50;47.01;102678.53;4738234;30;20443;-73
2022/07/09 04:58:33;;;;;;;3.08;2.00;;;;;;;24.50;47.05;102677.72;4738452;30;20062;-73
2022/07/09 05:00:59;;;;;;;2.60;2.15;;;;;;;24.49;47.09;102684.88;4733676;30;20062;-73
2022/07/09 05:03:24;;;;;;;2.60;2.30;;;;;;;24.47;47.18;102680.72;4734359;30;20427;-73
2022/07/09 05:05:53;;;;;;;3.92;2.35;;;;;;;24.50;47.09;102678.53;4738534;30;20564;-73
2022/07/09 05:08:18;;;;;;;2.58;2.20;;;;;;;24.47;47.12;102672.72;4741051;30;20066;-73
2022/07/09 05:10:44;;;;;;;3.30;2.22;;;;;;;24.46;47.23;102673.72;4739741;30;20048;-72
2022/07/09 05:13:10;;;;;;;2.08;1.88;;;;;;;24.46;47.13;102679.88;4740638;30;20068;-73
2022/07/09 05:15:35;;;;;;;2.85;2.00;;;;;;;24.46;47.27;102673.72;4736373;30;20040;-73
2022/07/09 05:18:01;;;;;;;2.78;2.20;;;;;;;24.54;46.97;102676.38;4738202;30;20590;-73
2022/07/09 05:20:26;;;;;;;2.97;2.30;;;;;;;24.49;47.04;102668.06;4737646;30;20102;-73
2022/07/09 05:22:52;;;;;;;3.28;2.63;;;;;;;24.56;46.92;102661.06;4742332;30;20047;-72
2022/07/09 05:25:18;;;;;;;2.35;1.92;;;;;;;24.52;47.00;102662.41;4738249;30;20056;-72
2022/07/09 05:27:45;;;;;;;2.35;2.10;;;;;;;24.52;47.17;102663.22;4740340;30;20636;-72
2022/07/09 05:30:14;;;;;;;3.42;2.10;;;;;;;24.54;47.04;102658.56;4737952;30;20066;-73
2022/07/09 05:32:39;;;;;;;3.22;2.25;;;;;;;24.51;47.12;102660.72;4738975;30;20470;-73
2022/07/09 05:35:05;;;;;;;2.83;2.17;;;;;;;24.53;47.04;102667.56;4736027;30;20082;-72
2022/07/09 05:37:31;;;;;;;2.97;2.17;;;;;;;24.52;47.07;102663.22;4741459;30;20048;-73
2022/07/09 05:39:57;;;;;;;2.67;2.00;;;;;;;24.53;47.10;102659.56;4738980;30;20591;-71
2022/07/09 05:42:23;;;;;;;2.47;2.10;;;;;;;24.52;47.11;102663.22;4736080;30;20055;-70
2022/07/09 05:44:49;;;;;;;2.42;2.10;;;;;;;24.53;46.94;102670.22;4739101;30;20752;-70
2022/07/09 05:47:15;;;;;;;2.85;2.25;;;;;;;24.51;46.94;102660.72;4741324;30;20049;-71
2022/07/09 05:49:40;;;;;;;2.33;2.00;;;;;;;24.51;47.10;102666.06;4733823;30;20131;-71
2022/07/09 05:52:06;;;;;;;2.08;1.80;;;;;;;24.52;46.95;102665.88;4737280;30;20044;-70
2022/07/09 05:54:32;;;;;;;3.03;2.20;;;;;;;24.50;47.10;102667.06;4738971;30;20052;-70
2022/07/09 05:56:57;;;;;;;2.17;1.98;;;;;;;24.50;46.95;102672.38;4738690;30;20091;-71
2022/07/09 05:59:23;;;;;;;2.15;1.95;;;;;;;24.43;47.16;102661.56;4739340;30;20059;-72
2022/07/09 06:01:48;;;;;;;2.70;2.10;;;;;;;24.47;47.26;102668.22;4736399;30;20385;-71
2022/07/09 06:04:14;;;;;;;2.78;1.90;;;;;;;24.50;47.04;102667.88;4733292;30;20181;-73
2022/07/09 06:06:39;;;;;;;3.63;2.25;;;;;;;24.43;47.24;102661.56;4734580;30;20522;-71
2022/07/09 06:09:05;;;;;;;4.25;2.25;;;;;;;24.45;47.24;102670.22;4739325;30;20803;-71
2022/07/09 06:11:30;;;;;;;3.58;2.30;;;;;;;24.43;47.14;102661.56;4737660;30;20130;-71
2022/07/09 06:13:56;;;;;;;3.05;2.03;;;;;;;24.47;47.03;102670.06;4736309;30;20656;-71
2022/07/09 06:16:21;;;;;;;3.85;2.10;;;;;;;24.47;47.36;102664.72;4738631;30;20090;-71
2022/07/09 06:18:47;;;;;;;2.10;1.90;;;;;;;24.43;47.20;102664.25;4733609;30;20064;-72
2022/07/09 06:21:12;;;;;;;2.25;2.00;;;;;;;24.41;47.28;102659.06;4736384;30;20047;-71
2022/07/09 06:23:38;;;;;;;2.70;2.00;;;;;;;24.42;47.40;102654.59;4734067;30;20058;-72
2022/07/09 06:26:04;;;;;;;2.33;1.88;;;;;;;24.35;47.26;102649.06;4736716;30;20056;-73
2022/07/09 06:28:29;;;;;;;2.65;1.80;;;;;;;24.43;47.31;102656.25;4733361;30;20055;-71
2022/07/09 06:30:55;;;;;;;2.28;2.00;;;;;;;24.48;47.17;102658.41;4737339;30;20157;-71
2022/07/09 06:33:20;;;;;;;2.30;2.10;;;;;;;24.44;47.16;102657.06;4738746;30;20040;-70
2022/07/09 06:35:46;;;;;;;3.45;2.30;;;;;;;24.43;47.23;102650.91;4734149;30;20544;-71
2022/07/09 06:38:11;;;;;;;2.35;2.10;;;;;;;24.41;47.23;102656.38;4737545;30;20048;-71
2022/07/09 06:40:37;;;;;;;2.97;2.00;;;;;;;24.42;47.25;102659.91;4739299;30;20047;-70
2022/07/09 06:43:04;;;;;;;2.28;1.85;;;;;;;24.43;47.28;102655.41;4736481;30;20082;-71
2022/07/09 06:45:34;;;;;;;2.58;1.75;;;;;;;24.43;47.23;102663.41;4736287;30;20044;-71
2022/07/09 06:47:59;;;;;;;3.25;2.13;;;;;;;24.44;47.24;102659.75;4737777;30;20036;-73
2022/07/09 06:50:25;;;;;;;2.47;1.90;;;;;;;24.44;47.30;102663.25;4737711;30;20052;-72
2022/07/09 06:52:51;;;;;;;2.70;2.15;;;;;;;24.45;47.27;102672.88;4742342;30;20518;-73
2022/07/09 06:55:16;;;;;;;2.53;2.10;;;;;;;24.46;47.27;102671.88;4739559;30;20032;-72
2022/07/09 06:57:42;;;;;;;2.20;2.00;;;;;;;24.36;47.32;102671.22;4742233;30;20051;-73
2022/07/09 07:00:08;;;;;;;3.22;2.10;;;;;;;24.43;47.37;102671.41;4740352;30;20389;-72
2022/07/09 07:02:33;;;;;;;2.30;2.10;;;;;;;24.38;47.35;102671.88;4738706;30;20056;-72
2022/07/09 07:04:59;;;;;;;3.08;2.00;;;;;;;24.39;47.24;102674.38;4739906;30;20055;-72
2022/07/09 07:07:24;;;;;;;2.00;1.80;;;;;;;24.41;47.67;102669.69;4737807;30;20052;-71
2022/07/09 07:09:50;;;;;;;2.97;1.98;;;;;;;24.44;47.07;102668.56;4737944;30;20044;-72
2022/07/09 07:12:15;;;;;;;2.75;1.98;;;;;;;24.44;47.25;102668.56;4738463;30;20036;-71
2022/07/09 07:14:42;;;;;;;2.30;2.08;;;;;;;24.42;47.38;102667.91;4738641;30;20401;-73
2022/07/09 07:17:08;;;;;;;3.10;2.17;;;;;;;24.35;47.21;102661.56;4740044;30;20075;-73
2022/07/09 07:19:34;;;;;;;2.80;1.80;;;;;;;24.43;47.18;102671.41;4739205;30;20182;-73
2022/07/09 07:21:59;;;;;;;2.42;2.10;;;;;;;24.42;47.33;102670.56;4737252;30;20053;-73
2022/07/09 07:24:25;;;;;;;2.33;1.90;;;;;;;24.38;47.36;102663.88;4737132;30;20068;-72
2022/07/09 07:26:50;;;;;;;2.35;2.00;;;;;;;24.44;47.13;102670.41;4740958;30;20048;-73
2022/07/09 07:29:16;;;;;;;2.28;1.83;;;;;;;24.51;47.08;102674.03;4750785;30;20388;-71
2022/07/09 07:31:41;;;;;;;2.97;1.90;;;;;;;24.48;47.08;102663.72;4730149;30;20053;-73
2022/07/09 07:34:07;;;;;;;2.88;2.22;;;;;;;24.46;47.23;102663.06;4740744;30;20063;-72
2022/07/09 07:36:34;;;;;;;2.28;1.77;;;;;;;24.50;47.24;102659.06;4736986;30;20056;-72
2022/07/09 07:38:59;;;;;;;2.15;1.95;;;;;;;24.49;47.07;102663.56;4738221;30;20136;-72
2022/07/09 07:41:25;;;;;;;2.83;2.13;;;;;;;24.50;47.01;102667.88;4738185;30;20644;-72
2022/07/09 07:43:50;;;;;;;1.80;1.70;;;;;;;24.55;46.85;102662.06;4736381;30;21975;-72
2022/07/09 07:46:16;;;;;;;2.22;1.90;;;;;;;24.55;47.20;102662.06;4734240;30;20063;-72
2022/07/09 07:48:42;;;;;;;2.03;1.83;;;;;;;24.53;46.99;102664.88;4731087;30;20748;-71
2022/07/09 07:51:08;;;;;;;1.73;1.63;;;;;;;24.52;47.18;102652.56;4737623;30;20075;-71
2022/07/09 07:53:34;;;;;;;2.63;2.10;;;;;;;24.56;47.02;102655.72;4737495;30;20055;-71
2022/07/09 07:56:00;;;;;;;2.03;1.83;;;;;;;24.49;46.95;102647.59;4736930;30;20040;-71
2022/07/09 07:58:26;;;;;;;2.53;2.10;;;;;;;24.49;47.49;102650.25;4740748;30;20105;-71
2022/07/09 08:00:51;;;;;;;2.05;1.83;;;;;;;24.57;46.97;102652.06;4737819;30;20051;-71
2022/07/09 08:03:17;;;;;;;2.53;2.00;;;;;;;24.47;47.23;102656.75;4744919;30;20044;-71
2022/07/09 08:05:43;;;;;;;2.10;1.90;;;;;;;24.59;47.03;102650.06;4738330;30;20059;-71
2022/07/09 08:08:08;;;;;;;2.72;2.20;;;;;;;24.56;47.05;102655.72;4740924;30;20048;-71
2022/07/09 08:10:34;;;;;;;3.10;1.98;;;;;;;24.53;47.41;102653.41;4739481;30;20048;-72
2022/07/09 08:12:59;;;;;;;3.40;1.90;;;;;;;24.54;47.27;102653.22;4737738;30;20105;-72
2022/07/09 08:15:25;;;;;;;3.22;2.05;;;;;;;24.60;47.17;102665.06;4737012;30;20384;-72
2022/07/09 08:17:50;;;;;;;2.40;1.90;;;;;;;24.59;47.30;102663.38;4743072;30;20044;-72
2022/07/09 08:20:16;;;;;;;2.78;2.38;;;;;;;24.58;46.92;102654.56;4744810;30;20043;-72
2022/07/09 08:22:41;;;;;;;2.45;2.22;;;;;;;24.56;47.17;102655.72;4741978;30;20746;-72
2022/07/09 08:25:07;;;;;;;3.70;2.25;;;;;;;24.55;47.21;102659.38;4737257;30;20052;-72
2022/07/09 08:27:33;;;;;;;2.75;2.10;;;;;;;24.56;47.27;102659.22;4739915;30;20056;-72
2022/07/09 08:29:59;;;;;;;3.15;2.00;;;;;;;24.55;47.27;102662.06;4740822;30;20048;-72
2022/07/09 08:32:24;;;;;;;2.17;1.98;;;;;;;24.53;47.18;102662.22;4739061;30;20044;-72
2022/07/09 08:34:50;;;;;;;3.00;2.10;;;;;;;24.59;47.13;102656.22;4738118;30;20796;-72
2022/07/09 08:37:15;;;;;;;3.85;2.30;;;;;;;24.54;47.33;102658.56;4741970;30;20056;-71
2022/07/09 08:39:41;;;;;;;2.35;1.80;;;;;;;24.60;47.03;102657.06;4738997;30;20048;-72
2022/07/09 08:42:10;;;;;;;2.25;1.65;;;;;;;24.61;47.32;102656.91;4739825;30;20048;-72
2022/07/09 08:44:38;;;;;;;2.67;1.92;;;;;;;24.61;47.05;102664.91;4743983;30;20048;-71
2022/07/09 08:47:05;;;;;;;2.78;1.90;;;;;;;24.65;46.94;102657.41;4740734;30;20040;-71
2022/07/09 08:49:31;;;;;;;2.30;2.00;;;;;;;24.65;47.17;102650.25;4741842;30;20099;-71
2022/07/09 08:51:57;;;;;;;3.17;2.10;;;;;;;24.67;46.79;102658.88;4736636;30;20563;-71
2022/07/09 08:54:23;;;;;;;2.80;2.13;;;;;;;24.64;47.03;102659.22;4739840;30;20170;-72
2022/07/09 08:56:52;;;;;;;2.65;1.88;;;;;;;24.69;46.82;102651.56;4738955;30;20127;-72
2022/07/09 08:59:18;;;;;;;3.00;2.08;;;;;;;24.71;46.85;102656.72;4736540;30;20051;-72
2022/07/09 09:01:43;;;;;;;8.27;2.10;;;;;;;24.73;47.04;102657.38;4731262;30;20044;-72
2022/07/09 09:04:09;;;;;;;2.17;1.98;;;;;;;24.70;46.67;102653.22;4729673;30;20069;-73
2022/07/09 09:06:39;;;;;;;3.63;1.88;;;;;;;24.74;46.73;102661.69;4734140;30;20079;-72
2022/07/09 09:09:08;;;;;;;3.38;1.98;;;;;;;24.73;46.99;102667.19;4737491;30;20187;-72
2022/07/09 09:11:36;;;;;;;2.35;2.15;;;;;;;24.70;46.85;102661.22;4751744;30;20060;-72
2022/07/09 09:14:02;;;;;;;2.33;1.88;;;;;;;24.72;46.91;102658.38;4735006;30;20650;-73
2022/07/09 09:16:28;;;;;;;2.85;2.00;;;;;;;24.74;46.81;102661.69;4739535;30;20032;-73
2022/07/09 09:18:55;;;;;;;3.45;1.98;;;;;;;24.71;46.92;102654.88;4733748;30;20119;-71
2022/07/09 09:21:25;;;;;;;2.60;2.05;;;;;;;24.76;46.70;102651.72;4735069;30;20060;-71
2022/07/09 09:23:58;;;;;;;3.78;2.10;;;;;;;24.73;46.89;102648.56;4735132;30;20060;-71
2022/07/09 09:26:26;;;;;;;4.38;2.47;;;;;;;24.71;46.95;102649.56;4738994;30;20181;-71
2022/07/09 09:29:00;;;;;;;3.03;1.95;;;;;;;24.74;46.82;102655.53;4738845;30;20043;-73
2022/07/09 09:31:26;;;;;;;4.60;2.03;;;;;;;24.86;46.69;102656.88;4744418;30;20051;-73
2022/07/09 09:33:57;;;;;;;5.25;2.08;;;;;;;25.09;46.50;102654.34;4693519;30;20109;-76
2022/07/09 09:36:32;;;;;;;7.93;2.45;;;;;;;25.17;46.44;102649.00;4737491;30;20075;-72
2022/07/09 09:39:28;;;;;;;3.53;2.28;;;;;;;25.18;46.61;102656.81;4741677;30;20154;-74
2022/07/09 09:41:57;;;;;;;3.90;2.28;;;;;;;25.28;46.46;102659.28;4742311;29;20121;-75
2022/07/09 09:44:29;;;;;;;4.43;2.40;;;;;;;25.29;46.95;102659.09;4740825;30;20124;-76
2022/07/09 09:46:56;;;;;;;3.22;2.28;;;;;;;25.29;46.52;102661.78;4737976;30;20048;-74
2022/07/09 09:49:22;;;;;;;3.60;2.15;;;;;;;25.33;46.67;102662.28;4709811;30;20129;-70
2022/07/09 09:52:00;;;;;;;3.63;2.22;;;;;;;25.25;46.72;102655.13;4739886;30;20140;-70
2022/07/09 09:54:26;;;;;;;3.13;2.08;;;;;;;25.26;46.18;102670.13;4737528;30;20036;-71
2022/07/09 09:56:52;;;;;;;5.68;2.20;;;;;;;25.27;46.23;102668.28;4740698;30;20055;-72
2022/07/09 09:59:18;;;;;;;3.10;2.22;;;;;;;25.28;45.94;102672.63;4733232;30;20847;-72
2022/07/09 10:01:44;;;;;;;4.57;2.38;;;;;;;25.24;46.15;102679.28;4737606;30;20109;-72
2022/07/09 10:04:11;;;;;;;4.35;2.13;;;;;;;25.35;45.82;102681.59;4721184;30;20143;-69
2022/07/09 10:06:37;;;;;;;4.43;1.98;;;;;;;25.49;45.43;102672.03;4726140;30;20044;-68
2022/07/09 10:09:05;;;;;;;3.35;2.10;;;;;;;25.59;44.79;102676.16;4736808;30;20044;-72
2022/07/09 10:11:42;;;;;;;4.75;2.20;;;;;;;25.60;45.11;102667.16;4738313;30;20104;-69
2022/07/09 10:14:15;;;;;;;3.55;2.15;;;;;;;25.61;45.74;102678.66;4737234;30;20134;-70
2022/07/09 10:16:41;;;;;;;4.30;2.30;;;;;;;25.58;46.05;102671.84;4736847;30;20044;-75
2022/07/09 10:19:07;;;;;;;5.38;2.47;;;;;;;25.64;45.65;102669.47;4734660;30;20050;-74
2022/07/09 10:21:40;;;;;;;5.85;2.75;;;;;;;25.60;45.56;102669.00;4726869;30;20179;-76
2022/07/09 10:24:09;;;;;;;4.65;2.38;;;;;;;25.61;45.39;102666.16;4730122;30;20136;-74
2022/07/09 10:26:38;;;;;;;3.25;2.40;;;;;;;25.64;45.59;102664.97;4738967;30;20046;-73
2022/07/09 10:29:27;;;;;;;2.75;1.90;;;;;;;25.59;45.75;102673.50;4737108;30;20058;-73
2022/07/09 10:31:56;;;;;;;7.15;2.28;;;;;;;25.67;45.12;102677.94;4739210;30;20064;-77
2022/07/09 10:34:22;;;;;;;5.57;2.47;;;;;;;25.71;44.86;102667.81;4736498;30;20055;-74
2022/07/09 10:36:58;;;;;;;8.80;2.60;;;;;;;25.72;44.90;102674.81;4733705;30;20056;-74
2022/07/09 10:39:23;;;;;;;6.38;2.10;;;;;;;25.74;44.51;102678.97;4724415;30;20566;-68
2022/07/09 10:41:59;;;;;;;2.95;2.00;;;;;;;25.76;44.39;102679.63;4734955;30;20094;-73
2022/07/09 10:44:36;;;;;;;4.47;2.67;;;;;;;25.76;44.71;102678.78;4731374;30;20133;-75
2022/07/09 10:47:02;;;;;;;6.45;2.60;;;;;;;25.76;44.59;102673.44;4735891;30;20105;-70
2022/07/09 10:49:28;;;;;;;5.47;2.50;;;;;;;25.76;44.45;102686.78;4735004;30;20060;-70
2022/07/09 10:51:59;;;;;;;6.20;2.47;;;;;;;25.74;44.87;102684.31;4734764;30;20071;-74
2022/07/09 10:54:25;;;;;;;3.17;2.28;;;;;;;25.77;44.71;102694.63;4724001;30;20063;-72
2022/07/09 10:56:52;;;;;;;6.13;2.58;;;;;;;25.76;44.71;102708.13;4733551;30;20037;-70
2022/07/09 10:59:18;;;;;;;4.47;2.35;;;;;;;25.79;44.55;102705.13;4731701;30;20042;-71
2022/07/09 11:01:44;;;;;;;5.32;2.65;;;;;;;25.79;44.93;102710.44;4732171;30;20392;-69
2022/07/09 11:04:11;;;;;;;4.00;2.20;;;;;;;25.81;44.63;102724.44;4734713;30;20078;-69
2022/07/09 11:06:45;;;;;;;5.20;2.47;;;;;;;25.78;45.09;102722.97;4727617;30;20048;-68
2022/07/09 11:09:15;;;;;;;3.53;1.92;;;;;;;25.71;45.05;102723.84;4722065;30;20036;-69
2022/07/09 11:11:45;;;;;;;5.85;2.53;;;;;;;25.66;45.31;102720.81;4735093;30;20048;-69
2022/07/09 11:14:11;;;;;;;6.35;2.33;;;;;;;25.58;45.23;102716.34;4729432;30;20407;-69
2022/07/09 11:16:37;;;;;;;6.95;3.00;;;;;;;25.57;45.44;102720.03;4732452;30;21001;-69
2022/07/09 11:19:19;;;;;;;4.00;2.17;;;;;;;25.60;44.98;102722.34;4729726;30;20062;-69
2022/07/09 11:21:45;;;;;;;4.93;2.33;;;;;;;25.57;44.90;102718.19;4732099;30;20121;-71